Latest Coastal Weather Observations for Coffs Harbour Airport

IDN60701

Issued at 4:31 am EST Tuesday 28 June 2022 (issued every 10 minutes, with the page automatically refreshed every 10 minutes)

About coastal observations | Map of coastal stations | Coastal observations for NSW | Marine services | Other Formats
Station Details ID: 059151 Name: COFFS HARBOUR AIRPORT Lat: -30.32 Lon: 153.12 Height: 3.5 m
Data from the previous 72 hours. | See also: Recent months at Coffs Harbour Airport
Date/Time
EST
Wind Sea
Height
m
Swell Vis
km
Cloud Weather Temp
°C
Press
MSL
hPa
Rain since
9am
mm
Dir  Spd
kts
Gust
kts
Height
m
Period
s
Dir
28/04:30am SW 15 20 - - - - 10 Clear - 12.1 1025.2 0.0
28/04:00am SW 15 20 - - - - 10 - - 12.1 1025.2 0.0
28/03:30am SW 17 22 - - - - 10 - - 12.2 1025.1 0.0
28/03:00am SW 17 21 - - - - 10 - - 12.0 1025.1 0.0
28/02:30am SW 15 19 - - - - 10 - - 11.9 1025.0 0.0
28/02:00am SW 15 19 - - - - 10 - - 11.8 1025.2 0.0
28/01:30am SW 12 17 - - - - 10 Partly cloudy - 11.8 1025.6 0.0
28/01:00am SW 15 18 - - - - 10 Partly cloudy - 12.0 1025.6 0.0
28/12:30am SW 15 21 - - - - 10 Partly cloudy - 12.5 1025.5 0.0
28/12:00am SW 18 22 - - - - 10 Mostly clear - 13.3 1025.8 0.0
 
Date/Time
EST
Wind Sea
Height
m
Swell Vis
km
Cloud Weather Temp
°C
Press
MSL
hPa
Rain since
9am
mm
Dir  Spd
kts
Gust
kts
Height
m
Period
s
Dir
27/11:37pm SSW 20 30 - - - - 10 - - 13.2 1025.6 0.0
27/11:30pm SSW 18 23 - - - - 10 - - 13.1 1025.7 0.0
27/11:00pm SW 17 21 - - - - 10 - - 13.0 1026.0 0.0
27/10:30pm SSW 18 25 - - - - 10 Partly cloudy - 13.3 1025.9 0.0
27/10:00pm SW 15 21 - - - - 10 Partly cloudy - 13.6 1026.2 0.0
27/09:30pm SW 15 21 - - - - 10 Cloudy - 13.9 1026.2 0.0
27/09:00pm SW 15 21 - - - - 10 Mostly cloudy - 14.0 1026.0 0.0
27/08:30pm SW 15 20 - - - - 10 Cloudy - 13.9 1025.9 0.0
27/08:13pm SW 18 28 - - - - 10 Cloudy - 14.3 1025.9 0.0
27/08:00pm SSW 18 25 - - - - 10 Partly cloudy - 14.3 1025.8 0.0
27/07:30pm SSW 19 26 - - - - 10 - - 14.5 1025.2 0.0
27/07:13pm SSW 19 29 - - - - 10 - - 15.1 1025.0 0.0
27/07:00pm SSW 22 28 - - - - 10 - - 15.3 1024.9 0.0
27/06:30pm SSW 18 27 - - - - 10 - - 16.0 1024.4 0.0
27/06:15pm SSW 18 28 - - - - 10 - - 15.9 1024.1 0.0
27/06:00pm SSW 17 25 - - - - 10 - - 16.1 1023.8 0.0
27/05:48pm SSW 16 26 - - - - 10 - - 16.1 1023.5 0.0
27/05:30pm SSW 19 27 - - - - 10 - - 16.2 1023.1 0.0
27/05:00pm SSW 21 28 - - - - 10 - - 17.0 1022.8 0.0
27/04:30pm S 23 30 - - - - 10 - - 17.3 1022.7 0.0
27/04:09pm S 20 31 - - - - 10 - - 17.8 1022.4 0.0
27/04:00pm S 20 27 - - - - 10 - - 18.0 1022.3 0.0
27/03:30pm S 17 22 - - - - 10 - - 18.4 1021.8 0.0
27/03:00pm S 18 22 - - - - 10 - - 18.9 1021.5 0.0
27/02:30pm S 15 19 - - - - 10 - - 19.3 1021.0 0.0
27/02:00pm S 13 17 - - - - 10 - - 20.0 1021.2 0.0
27/01:30pm SSW 15 20 - - - - 10 - - 19.8 1021.2 0.0
27/01:00pm SSW 14 19 - - - - 10 - - 20.0 1021.4 0.0
27/12:30pm SW 13 18 - - - - 10 - - 19.9 1021.6 0.0
27/12:00pm S 11 14 - - - - 10 - - 19.5 1022.0 0.0
27/11:30am S 12 17 - - - - 10 - - 19.1 1022.5 0.0
27/11:00am SW 13 17 - - - - 10 - - 19.2 1023.0 0.0
27/10:30am SSW 14 18 - - - - 10 - - 18.6 1023.4 0.0
27/10:00am SW 9 12 - - - - 10 - - 18.0 1023.6 0.0
27/09:30am SW 9 11 - - - - 10 - - 17.1 1023.8 0.0
27/09:00am SW 8 11 - - - - 10 - - 15.5 1023.6 0.0
27/08:30am WSW 4 6 - - - - 10 - - 13.7 1023.5 0.0
27/08:00am WSW 4 5 - - - - 10 - - 10.0 1023.2 0.0
27/07:30am WSW 6 10 - - - - 10 - - 9.6 1023.1 0.0
27/07:00am W 1 3 - - - - 10 - - 9.4 1022.7 0.0
27/06:30am W 2 4 - - - - 10 - - 9.4 1022.2 0.0
27/06:00am W 2 4 - - - - 10 Mostly cloudy - 9.9 1022.3 0.0
27/05:30am WSW 8 10 - - - - 10 - - 11.2 1022.6 0.0
27/05:00am N 1 4 - - - - 10 - - 9.4 1022.9 0.0
27/04:30am N 3 4 - - - - 10 - - 10.1 1022.8 0.0
27/04:00am N 5 7 - - - - 10 - - 9.5 1022.6 0.0
27/03:30am N 4 5 - - - - 10 - - 9.6 1022.7 0.0
27/03:00am N 5 6 - - - - 10 Mostly cloudy - 9.4 1022.7 0.0
27/02:30am N 4 5 - - - - 10 - - 9.8 1023.1 0.0
27/02:00am N 5 5 - - - - 10 - - 9.8 1023.6 0.0
27/01:30am N 5 5 - - - - 10 - - 9.7 1023.9 0.0
27/01:00am CALM 0 0 - - - - 10 - - 10.1 1024.1 0.0
27/12:30am N 5 5 - - - - 10 - - 10.8 1024.3 0.0
27/12:00am N 7 8 - - - - 10 Mostly clear - 10.3 1024.4 0.0
 
Date/Time
EST
Wind Sea
Height
m
Swell Vis
km
Cloud Weather Temp
°C
Press
MSL
hPa
Rain since
9am
mm
Dir  Spd
kts
Gust
kts
Height
m
Period
s
Dir
26/11:30pm N 5 5 - - - - 10 - - 9.4 1024.5 0.0
26/11:00pm N 3 4 - - - - 10 - - 10.7 1024.6 0.0
26/10:30pm N 5 6 - - - - 10 - - 11.2 1024.8 0.0
26/10:00pm N 5 6 - - - - 10 - - 12.1 1024.7 0.0
26/09:30pm N 4 5 - - - - 10 - - 11.5 1024.6 0.0
26/09:00pm N 4 4 - - - - 10 Partly cloudy - 11.5 1024.4 0.0
26/08:30pm N 5 6 - - - - 10 - - 12.3 1024.5 0.0
26/08:00pm N 3 4 - - - - 10 - - 11.8 1024.4 0.0
26/07:30pm N 5 5 - - - - 10 - - 12.4 1024.4 0.0
26/07:00pm N 4 5 - - - - 10 - - 11.8 1024.5 0.0
26/06:30pm N 3 4 - - - - 10 - - 12.8 1024.3 0.0
26/06:00pm N 5 6 - - - - 10 - - 13.6 1023.9 0.0
26/05:30pm N 6 7 - - - - 10 - - 16.1 1023.6 0.0
26/05:00pm N 7 9 - - - - 10 - - 17.5 1023.3 0.0
26/04:30pm NNE 7 10 - - - - 10 - - 18.0 1023.3 0.0
26/04:00pm NNE 9 12 - - - - 10 - - 19.6 1023.1 0.0
26/03:30pm NNE 8 10 - - - - 10 - - 20.0 1023.0 0.0
26/03:00pm NE 8 11 - - - - 10 - - 19.8 1023.1 0.0
26/02:30pm NNE 9 12 - - - - 10 - - 20.2 1023.1 0.0
26/02:00pm NE 8 11 - - - - 10 - - 20.0 1023.3 0.0
26/01:30pm E 5 7 - - - - 10 - - 19.3 1023.5 0.0
26/01:00pm SE 6 8 - - - - 10 - - 18.8 1023.9 0.0
26/12:30pm SSE 5 7 - - - - 10 - - 18.9 1024.4 0.0
26/12:00pm S 6 7 - - - - 10 - - 19.0 1024.7 0.0
26/11:30am SW 4 6 - - - - 10 - - 18.1 1025.1 0.0
26/11:00am SW 1 4 - - - - 10 - - 17.2 1025.5 0.0
26/10:30am WSW 2 4 - - - - 10 - - 16.1 1025.7 0.0
26/10:00am WSW 4 5 - - - - 10 - - 14.9 1025.8 0.0
26/09:30am WSW 4 4 - - - - 10 - - 13.5 1026.0 0.0
26/09:00am WSW 3 4 - - - - 10 - - 12.0 1026.0 0.0
26/08:30am WSW 3 4 - - - - 10 - - 10.6 1025.8 0.0
26/08:00am WSW 3 5 - - - - 10 - - 8.4 1025.8 0.0
26/07:30am WSW 4 5 - - - - 10 - - 6.9 1025.7 0.0
26/07:00am WSW 4 5 - - - - 10 - - 6.0 1025.4 0.0
26/06:36am WSW 1 5 - - - - 10 - - 5.6 1025.1 0.0
26/06:30am WSW 1 3 - - - - 10 - - 6.2 1025.1 0.0
26/06:06am WSW 3 4 - - - - 6 - - 5.8 1025.0 0.0
26/06:00am WSW 4 5 - - - - 9 - - 5.8 1025.0 0.0
26/05:57am WSW 4 5 - - - - 10 - - 5.9 1025.0 0.0
26/05:30am WSW 5 6 - - - - 5 - - 5.4 1024.7 0.0
26/05:10am WSW 5 5 - - - - 10 - - 5.7 1024.5 0.0
26/05:00am WSW 2 4 - - - - 6 - - 5.8 1024.5 0.0
26/04:47am WSW 1 4 - - - - 5 - - 5.5 1024.3 0.0
26/04:30am CALM 0 0 - - - - 7 - - 5.5 1024.2 0.0
26/04:29am CALM 0 0 - - - - 7 - - 5.5 1024.2 0.0
26/04:00am CALM 0 0 - - - - 1 - - 5.6 1024.1 0.0
26/03:51am CALM 0 0 - - - - 5 - - 5.7 1024.1 0.0
26/03:42am CALM 0 0 - - - - 7 - - 5.7 1024.1 0.0
26/03:30am WSW 2 3 - - - - 2 - - 6.0 1024.1 0.0
26/03:12am WSW 4 5 - - - - 5 - - 6.1 1024.1 0.0
26/03:06am WSW 3 5 - - - - 10 - - 6.0 1024.2 0.0
26/03:00am WSW 3 4 - - - - 10 - - 6.1 1024.1 0.0
26/02:53am WSW 1 4 - - - - 1 - - 6.1 1024.1 0.0
26/02:46am WSW 1 4 - - - - 0.9 - - 6.2 1024.1 0.0
26/02:42am WSW 3 4 - - - - 6 - - 6.5 1024.1 0.0
26/02:31am WSW 3 4 - - - - 10 - - 7.2 1024.0 0.0
26/02:30am WSW 3 4 - - - - 10 - - 7.3 1024.0 0.0
26/02:00am WSW 3 4 - - - - 6 - - 6.4 1024.2 0.0
26/01:30am WSW 4 4 - - - - 10 - - 6.1 1024.4 0.0
26/01:12am WSW 3 4 - - - - 10 - - 6.8 1024.3 0.0
26/01:00am WSW 3 5 - - - - 2 - - 6.8 1024.3 0.0
26/12:49am WSW 2 5 - - - - 4 - - 7.2 1024.3 0.0
26/12:43am CALM 0 1 - - - - 10 - - 7.4 1024.3 0.0
26/12:33am WSW 3 5 - - - - 6 - - 7.2 1024.2 0.0
26/12:30am WSW 2 5 - - - - 7 - - 7.3 1024.2 0.0
26/12:00am WSW 4 5 - - - - 10 - - 7.2 1024.4 0.0
 
Date/Time
EST
Wind Sea
Height
m
Swell Vis
km
Cloud Weather Temp
°C
Press
MSL
hPa
Rain since
9am
mm
Dir  Spd
kts
Gust
kts
Height
m
Period
s
Dir
25/11:30pm WSW 5 5 - - - - 10 - - 7.4 1024.6 0.0
25/11:18pm WSW 3 5 - - - - 10 - - 7.3 1024.5 0.0
25/11:00pm WSW 4 5 - - - - 5 - - 7.7 1024.6 0.0
25/10:45pm WSW 4 5 - - - - 6 - - 7.4 1024.7 0.0
25/10:30pm WSW 4 4 - - - - 10 - - 7.3 1024.7 0.0
25/10:00pm WSW 4 4 - - - - 10 - - 8.1 1024.8 0.0
25/09:40pm WSW 4 5 - - - - 10 - - 8.6 1024.8 0.0
25/09:30pm WSW 4 4 - - - - 6 - - 8.5 1024.7 0.0
25/09:22pm WSW 3 4 - - - - 5 - - 8.5 1024.7 0.0
25/09:00pm WSW 4 5 - - - - 10 - - 8.6 1024.7 0.0
25/08:30pm WSW 4 4 - - - - 10 - - 8.7 1024.6 0.0
25/08:00pm WSW 4 5 - - - - 10 - - 9.1 1024.4 0.0
25/07:30pm WSW 5 5 - - - - 10 - - 9.6 1024.2 0.0
25/07:00pm WSW 4 4 - - - - 10 - - 10.3 1024.0 0.0
25/06:30pm SW 3 4 - - - - 10 - - 11.0 1023.6 0.0
25/06:00pm SSW 4 5 - - - - 10 - - 10.8 1023.4 0.0
25/05:30pm S 4 4 - - - - 10 - - 12.3 1022.8 0.0
25/05:00pm CALM 0 0 - - - - 10 - - 13.8 1022.4 0.0
25/04:30pm SSE 4 4 - - - - 10 - - 16.5 1022.2 0.0
25/04:00pm SSE 4 5 - - - - 10 - - 18.5 1022.1 0.0
25/03:30pm SSE 5 6 - - - - 10 - - 18.8 1021.9 0.0
25/03:00pm SE 5 6 - - - - 10 - - 19.0 1021.8 0.0
25/02:30pm ESE 5 7 - - - - 10 - - 19.2 1021.7 0.0
25/02:00pm SSE 6 8 - - - - 10 - - 19.0 1021.7 0.0
25/01:30pm SSE 7 8 - - - - 10 - - 19.1 1021.8 0.0
25/01:00pm SSE 8 10 - - - - 10 - - 19.4 1022.1 0.0
25/12:30pm SSE 7 10 - - - - 10 - - 19.5 1022.3 0.0
25/12:00pm SSE 8 9 - - - - 10 - - 19.2 1022.6 0.0
25/11:30am S 6 8 - - - - 10 - - 18.9 1022.8 0.0
25/11:00am SE 5 6 - - - - 10 - - 18.1 1023.3 0.0
25/10:30am S 3 6 - - - - 10 - - 17.0 1023.5 0.0
25/10:00am CALM 0 0 - - - - 10 - - 15.9 1023.7 0.0
25/09:30am SE 1 4 - - - - 10 - - 14.1 1023.7 0.0
25/09:00am CALM 0 0 - - - - 10 - - 12.4 1023.4 0.2
25/08:30am CALM 0 0 - - - - 10 - - 10.3 1023.1 0.2
25/08:00am NE 1 4 - - - - 10 - - 8.3 1022.9 0.2
25/07:30am NE 5 6 - - - - 10 - - 6.6 1022.7 0.2
25/07:00am NE 5 6 - - - - 10 - - 5.6 1022.3 0.2
25/06:30am NE 6 7 - - - - 10 - - 5.3 1022.0 0.2
25/06:00am ENE 3 5 - - - - 10 - - 4.1 1021.6 0.2
25/05:53am ENE 3 5 - - - - 10 - - 4.5 1021.6 0.2
25/05:30am NE 2 5 - - - - 4 - - 4.8 1021.1 0.2
25/05:01am NE 1 4 - - - - 5 - - 4.9 1020.8 0.2
25/05:00am NE 2 5 - - - - 10 - - 5.0 1020.8 0.2
25/04:50am NE 3 5 - - - - 10 - - 5.9 1020.6 0.2

Other formats

Comma delimited format used in spreadsheet applications
http://www.bom.gov.au/fwo/IDN60701/IDN60701.95729.axf

JavaScript Object Notation format (JSON) in row-major order
http://www.bom.gov.au/fwo/IDN60701/IDN60701.95729.json

Data quality

Most of these data are generated automatically and are frequently updated. Quality checks on data are not normally performed. It is possible for incorrect values to appear. Refer to information at About Latest Weather Observations and please check the disclaimer before using these data.